Time;durP1;ratioP1;P1;durP2;ratioP2;P2;SDS_P1;SDS_P2;PMS_P1;PMS_P2;Temp;Humidity;BMP_temperature;BMP_pressure;BME280_temperature;BME280_humidity;BME280_pressure;Samples;Min_cycle;Max_cycle;Signal;HPM_P1;HPM_P2
2022/06/30 00:00:36;;;;;;;;;;;;;;;23.11;63.50;99003.39;1660525;86;20113;-40
2022/06/30 00:03:01;;;;;;;;;;;;;;;23.09;64.65;99002.73;1660512;86;20423;-40
2022/06/30 00:05:27;;;;;;;;;;;;;;;23.07;64.69;98997.54;1660512;86;20122;-39
2022/06/30 00:07:53;;;;;;;;;;;;;;;23.08;64.09;98991.15;1660561;86;20117;-39
2022/06/30 00:10:18;;;;;;;;;;;;;;;23.08;64.48;98989.80;1660551;86;20142;-38
2022/06/30 00:12:44;;;;;;;;;;;;;;;23.08;64.63;98986.30;1660558;86;20109;-40
2022/06/30 00:15:10;;;;;;;;;;;;;;;23.10;63.12;98986.95;1660526;86;20431;-39
2022/06/30 00:17:35;;;;;;;;;;;;;;;23.06;64.21;98979.77;1660504;86;20190;-39
2022/06/30 00:20:02;;;;;;;;;;;;;;;23.04;64.54;98982.27;1660506;86;20122;-40
2022/06/30 00:22:27;;;;;;;;;;;;;;;23.02;63.86;98981.61;1677644;85;20112;-39
2022/06/30 00:24:53;;;;;;;;;;;;;;;22.98;64.63;98980.59;1688224;85;20105;-39
2022/06/30 00:27:19;;;;;;;;;;;;;;;22.96;64.77;98974.58;1688189;85;20135;-40
2022/06/30 00:29:44;;;;;;;;;;;;;;;22.97;64.46;98974.06;1688226;85;20104;-39
2022/06/30 00:32:10;;;;;;;;;;;;;;;22.96;63.30;98978.59;1688252;85;20160;-39
2022/06/30 00:34:36;;;;;;;;;;;;;;;22.94;65.15;98979.28;1688210;85;20107;-39
2022/06/30 00:37:02;;;;;;;;;;;;;;;22.94;65.59;98983.30;1688240;85;20711;-38
2022/06/30 00:39:29;;;;;;;;;;;;;;;22.94;64.48;98980.62;1688163;85;20120;-38
2022/06/30 00:41:55;;;;;;;;;;;;;;;22.94;65.59;98979.28;1688221;85;20502;-40
2022/06/30 00:44:21;;;;;;;;;;;;;;;22.93;65.45;98972.23;1688213;85;20115;-40
2022/06/30 00:46:47;;;;;;;;;;;;;;;22.92;66.13;98967.03;1688174;85;20416;-40
2022/06/30 00:49:12;;;;;;;;;;;;;;;22.91;66.10;98966.20;1688080;85;20112;-40
2022/06/30 00:51:38;;;;;;;;;;;;;;;22.91;66.27;98958.16;1668510;85;20175;-39
2022/06/30 00:54:04;;;;;;;;;;;;;;;22.91;66.08;98954.66;1688222;85;20428;-39
2022/06/30 00:56:30;;;;;;;;;;;;;;;22.91;66.38;98956.83;1688163;85;20144;-39
2022/06/30 00:58:59;;;;;;;;;;;;;;;22.92;66.19;98954.48;1688157;85;20148;-40
2022/06/30 01:01:25;;;;;;;;;;;;;;;22.91;65.95;98958.16;1687975;85;20484;-40
2022/06/30 01:03:51;;;;;;;;;;;;;;;22.93;65.53;98960.16;1688225;85;20116;-39
2022/06/30 01:06:17;;;;;;;;;;;;;;;22.92;66.24;98956.31;1688166;85;20104;-40
2022/06/30 01:08:43;;;;;;;;;;;;;;;22.92;65.98;98951.80;1688204;85;20143;-39
2022/06/30 01:13:52;;;;;;;;;;;;;;;22.88;65.25;98953.13;1688173;85;20116;-40
2022/06/30 01:16:22;;;;;;;;;;;;;;;22.87;65.82;98956.02;1688087;85;20457;-40
2022/06/30 01:18:48;;;;;;;;;;;;;;;22.85;66.40;98958.86;1688163;85;20139;-41
2022/06/30 01:21:14;;;;;;;;;;;;;;;22.81;65.88;98955.69;1688193;85;20120;-41
2022/06/30 01:23:39;;;;;;;;;;;;;;;22.79;66.18;98947.47;1688129;85;20143;-39
2022/06/30 01:26:05;;;;;;;;;;;;;;;22.76;65.32;98938.45;1688102;85;20103;-39
2022/06/30 01:28:31;;;;;;;;;;;;;;;22.70;67.27;98937.78;1688171;85;20136;-40
2022/06/30 01:30:58;;;;;;;;;;;;;;;22.69;65.20;98936.13;1688110;85;20159;-39
2022/06/30 01:33:23;;;;;;;;;;;;;;;22.65;66.57;98928.93;1688369;85;20143;-38
2022/06/30 01:35:49;;;;;;;;;;;;;;;22.61;67.01;98924.41;1688149;85;20131;-40
2022/06/30 01:38:15;;;;;;;;;;;;;;;22.58;67.65;98931.45;1688176;85;20111;-40
2022/06/30 01:40:41;;;;;;;;;;;;;;;22.56;68.37;98927.27;1688183;85;20420;-39
2022/06/30 01:43:11;;;;;;;;;;;;;;;22.53;68.84;98926.27;1688257;85;20108;-38
2022/06/30 01:45:34;;;;;;;;;;;;;;;22.52;67.18;98924.10;1687832;85;20409;-41
2022/06/30 01:47:59;;;;;;;;;;;;;;;22.50;68.98;98922.06;1689752;85;20111;-39
2022/06/30 01:50:29;;;;;;;;;;;;;;;22.49;68.26;98925.77;1694480;85;20111;-38
2022/06/30 01:52:56;;;;;;;;;;;;;;;22.48;68.02;98925.42;1694597;84;20115;-39
2022/06/30 01:55:21;;;;;;;;;;;;;;;22.50;68.82;98921.23;1694494;85;20120;-38
2022/06/30 01:57:48;;;;;;;;;;;;;;;22.50;68.18;98918.05;1694511;84;20408;-40
2022/06/30 02:00:16;;;;;;;;;;;;;;;22.50;69.26;98919.91;1694502;85;20136;-39
2022/06/30 02:02:42;;;;;;;;;;;;;;;22.50;69.02;98913.20;1694481;84;20441;-40
2022/06/30 02:05:09;;;;;;;;;;;;;;;22.50;69.27;98922.06;1694476;85;20103;-39
2022/06/30 02:07:36;;;;;;;;;;;;;;;22.54;68.59;98920.74;1694445;85;20424;-39
2022/06/30 02:10:05;;;;;;;;;;;;;;;22.54;69.61;98926.10;1694478;85;20217;-38
2022/06/30 02:12:45;;;;;;;;;;;;;;;22.54;68.29;98922.56;1693038;85;20444;-39
2022/06/30 02:15:23;;;;;;;;;;;;;;;22.49;69.97;98920.41;1694503;85;20135;-39
2022/06/30 02:17:51;;;;;;;;;;;;;;;22.50;69.92;98922.06;1693317;85;20111;-39
2022/06/30 02:20:21;;;;;;;;;;;;;;;22.50;69.39;98920.73;1694448;85;20115;-39
2022/06/30 02:22:45;;;;;;;;;;;;;;;22.50;69.91;98908.67;1693829;85;20108;-39
2022/06/30 02:25:11;;;;;;;;;;;;;;;22.50;69.65;98905.16;1694418;85;20433;-39
2022/06/30 02:27:36;;;;;;;;;;;;;;;22.52;68.96;98907.16;1694466;85;20136;-39
2022/06/30 02:30:04;;;;;;;;;;;;;;;22.52;68.93;98913.38;1694560;84;20103;-39
2022/06/30 02:32:29;;;;;;;;;;;;;;;22.55;68.24;98918.37;1694444;85;20408;-39
2022/06/30 02:34:56;;;;;;;;;;;;;;;22.55;69.37;98910.34;1694484;85;20107;-39
2022/06/30 02:37:22;;;;;;;;;;;;;;;22.56;69.75;98922.74;1694432;85;20115;-39
2022/06/30 02:39:47;;;;;;;;;;;;;;;22.56;69.50;98918.72;1694378;85;20115;-39
2022/06/30 02:42:13;;;;;;;;;;;;;;;22.57;68.51;98923.57;1729640;79;20154;-40
2022/06/30 02:44:38;;;;;;;;;;;;;;;22.58;68.71;98930.11;1753383;81;20106;-38
2022/06/30 02:47:04;;;;;;;;;;;;;;;22.57;69.76;98953.05;1753376;81;20098;-39
2022/06/30 02:49:30;;;;;;;;;;;;;;;22.49;70.95;99020.06;1753423;81;20548;-39
2022/06/30 02:51:55;;;;;;;;;;;;;;;22.46;69.86;99035.95;1753360;81;20151;-38
2022/06/30 02:54:21;;;;;;;;;;;;;;;22.33;70.62;99026.25;1753418;81;20399;-39
2022/06/30 02:56:47;;;;;;;;;;;;;;;22.20;70.80;99049.48;1753343;81;20151;-39
2022/06/30 02:59:13;;;;;;;;;;;;;;;22.06;70.75;99057.64;1753375;82;20506;-39
2022/06/30 03:01:39;;;;;;;;;;;;;;;21.92;72.19;99064.97;1753352;81;20110;-39
2022/06/30 03:04:05;;;;;;;;;;;;;;;21.87;71.82;99016.47;1753313;82;20111;-40
2022/06/30 03:06:32;;;;;;;;;;;;;;;21.85;71.22;99044.22;1753326;81;20224;-39
2022/06/30 03:08:58;;;;;;;;;;;;;;;21.84;72.13;99075.99;1753447;81;20102;-40
2022/06/30 03:11:24;;;;;;;;;;;;;;;21.69;73.36;99073.61;1753230;81;20102;-39
2022/06/30 03:13:50;;;;;;;;;;;;;;;21.70;71.52;99051.19;1753354;81;20175;-38
2022/06/30 03:16:16;;;;;;;;;;;;;;;21.61;73.86;99024.92;1753376;81;20135;-44
2022/06/30 03:18:42;;;;;;;;;;;;;;;21.67;72.01;99044.84;1753375;81;20107;-39
2022/06/30 03:21:08;;;;;;;;;;;;;;;21.71;72.77;99072.12;1753318;81;20095;-40
2022/06/30 03:23:34;;;;;;;;;;;;;;;21.70;75.40;99077.95;1753335;81;20146;-39
2022/06/30 03:26:00;;;;;;;;;;;;;;;21.61;76.05;99066.88;1753479;81;20115;-40
2022/06/30 03:28:26;;;;;;;;;;;;;;;21.61;77.20;99015.56;1753321;81;20112;-40
2022/06/30 03:30:51;;;;;;;;;;;;;;;;;;1753410;81;20114;-40
2022/06/30 03:33:17;;;;;;;;;;;;;;;21.50;77.30;99076.02;1753354;81;20391;-39
2022/06/30 03:35:43;;;;;;;;;;;;;;;21.53;74.79;99093.10;1753363;81;20131;-38
2022/06/30 03:38:09;;;;;;;;;;;;;;;21.34;77.72;99059.39;1753327;81;20410;-38
2022/06/30 03:40:35;;;;;;;;;;;;;;;21.27;77.89;99033.77;1749893;81;20110;-39
2022/06/30 03:43:01;;;;;;;;;;;;;;;21.28;75.53;99054.66;1747910;82;20103;-39
2022/06/30 03:45:27;;;;;;;;;;;;;;;21.22;77.40;99080.20;1749238;82;20151;-39
2022/06/30 03:47:53;;;;;;;;;;;;;;;21.18;78.88;99065.98;1749255;82;20103;-39
2022/06/30 03:50:18;;;;;;;;;;;;;;;21.15;78.91;99039.55;1749178;81;20115;-39
2022/06/30 03:52:44;;;;;;;;;;;;;;;21.05;80.48;99028.98;1749355;81;20441;-40
2022/06/30 03:55:10;;;;;;;;;;;;;;;20.89;81.55;99026.54;1749193;81;20107;-39
2022/06/30 03:57:35;;;;;;;;;;;;;;;20.96;80.94;99038.78;1749151;81;20130;-38
2022/06/30 04:00:02;;;;;;;;;;;;;;;21.02;80.58;99052.84;1749146;82;20130;-39
2022/06/30 04:02:28;;;;;;;;;;;;;;;21.00;80.73;99045.99;1749418;81;20135;-40
2022/06/30 04:04:53;;;;;;;;;;;;;;;20.96;80.76;99017.41;1749090;81;20444;-38
2022/06/30 04:07:19;;;;;;;;;;;;;;;20.97;80.68;99015.05;1749075;82;20103;-40
2022/06/30 04:09:45;;;;;;;;;;;;;;;20.93;80.44;99041.77;1749105;81;20099;-40
2022/06/30 04:12:10;;;;;;;;;;;;;;;21.03;77.77;99059.88;1749061;82;20143;-41
2022/06/30 04:14:36;;;;;;;;;;;;;;;20.90;81.12;99050.09;1749136;81;20228;-40
2022/06/30 04:17:01;;;;;;;;;;;;;;;20.88;82.03;99026.22;1749208;81;20408;-39
2022/06/30 04:19:27;;;;;;;;;;;;;;;20.99;80.09;99008.22;1749114;81;20174;-40
2022/06/30 04:21:52;;;;;;;;;;;;;;;20.94;81.44;99015.39;1749135;81;20107;-39
2022/06/30 04:24:18;;;;;;;;;;;;;;;20.94;81.39;99031.42;1749123;81;20518;-39
2022/06/30 04:26:44;;;;;;;;;;;;;;;20.98;81.36;99036.79;1749054;81;20103;-39
2022/06/30 04:29:09;;;;;;;;;;;;;;;21.02;79.90;99027.95;1749128;81;20159;-39
2022/06/30 04:34:21;;;;;;;;;;;;;;;20.93;80.77;99027.57;1749094;82;20110;-41
2022/06/30 04:36:47;;;;;;;;;;;;;;;20.87;80.76;99025.03;1749062;82;20143;-40
2022/06/30 04:39:12;;;;;;;;;;;;;;;20.85;81.11;99045.73;1749183;81;20423;-38
2022/06/30 04:41:38;;;;;;;;;;;;;;;20.87;80.20;99068.63;1747981;82;20143;-39
2022/06/30 04:44:05;;;;;;;;;;;;;;;20.89;80.05;99066.62;1731022;83;20186;-39
2022/06/30 04:46:31;;;;;;;;;;;;;;;20.77;82.74;99053.17;1730935;83;20115;-39
2022/06/30 04:48:57;;;;;;;;;;;;;;;20.77;82.25;99046.49;1731009;83;20140;-40
2022/06/30 04:51:22;;;;;;;;;;;;;;;20.74;82.50;99056.18;1730926;83;20099;-39
2022/06/30 04:53:48;;;;;;;;;;;;;;;20.74;82.68;99057.99;1730993;82;20124;-38
2022/06/30 04:56:15;;;;;;;;;;;;;;;20.62;82.62;99058.25;1731051;82;20170;-39
2022/06/30 04:58:40;;;;;;;;;;;;;;;20.54;84.12;99064.84;1731025;83;20427;-40
2022/06/30 05:01:06;;;;;;;;;;;;;;;20.68;83.65;99067.47;1731004;82;20108;-39
2022/06/30 05:03:32;;;;;;;;;;;;;;;20.71;83.09;99061.83;1731095;82;20226;-39
2022/06/30 05:05:58;;;;;;;;;;;;;;;20.70;83.56;99062.33;1731002;82;20420;-40
2022/06/30 05:08:24;;;;;;;;;;;;;;;20.60;84.21;99070.06;1731058;83;20466;-38
2022/06/30 05:10:50;;;;;;;;;;;;;;;20.77;82.55;99069.20;1731036;82;20104;-39
2022/06/30 05:13:16;;;;;;;;;;;;;;;20.77;83.11;99071.05;1731120;82;20437;-40
2022/06/30 05:15:45;;;;;;;;;;;;;;;20.71;84.28;99068.00;1730992;83;20108;-40
2022/06/30 05:18:11;;;;;;;;;;;;;;;20.79;83.88;99059.23;1730947;83;20111;-39
2022/06/30 05:20:37;;;;;;;;;;;;;;;20.73;84.25;99051.81;1730934;82;20436;-39
2022/06/30 05:23:02;;;;;;;;;;;;;;;20.84;82.68;99051.55;1731089;82;20155;-40
2022/06/30 05:28:13;;;;;;;;;;;;;;;20.81;83.01;99045.69;1731042;82;20168;-39
2022/06/30 05:30:39;;;;;;;;;;;;;;;20.87;82.77;99039.22;1730997;83;20135;-38
2022/06/30 05:33:04;;;;;;;;;;;;;;;20.93;82.05;99042.27;1730934;83;20622;-39
2022/06/30 05:35:30;;;;;;;;;;;;;;;20.85;83.24;99034.54;1731150;83;20419;-39
2022/06/30 05:37:56;;;;;;;;;;;;;;;20.80;83.52;99034.67;1731192;83;20412;-38
2022/06/30 05:40:22;;;;;;;;;;;;;;;20.96;82.16;99024.09;1730914;83;20108;-39
2022/06/30 05:42:47;;;;;;;;;;;;;;;21.03;82.31;99015.77;1734381;82;20152;-38
2022/06/30 05:45:13;;;;;;;;;;;;;;;21.09;81.98;99016.46;1738956;83;20123;-39
2022/06/30 05:47:50;;;;;;;;;;;;;;;21.18;81.52;99012.00;1738799;83;20476;-39
2022/06/30 05:50:16;;;;;;;;;;;;;;;21.26;81.51;99017.87;1738762;83;20116;-40
2022/06/30 05:52:42;;;;;;;;;;;;;;;21.32;80.59;99031.97;1738880;83;20411;-39
2022/06/30 05:55:08;;;;;;;;;;;;;;;21.36;80.85;99032.48;1738930;82;20115;-39
2022/06/30 05:57:34;;;;;;;;;;;;;;;21.35;80.65;99030.80;1738737;82;20135;-40
2022/06/30 05:59:59;;;;;;;;;;;;;;;21.44;79.94;99037.34;1738797;83;20135;-41
2022/06/30 06:02:25;;;;;;;;;;;;;;;21.50;80.94;99041.75;1738778;82;20111;-40
2022/06/30 06:04:50;;;;;;;;;;;;;;;21.54;80.43;99035.94;1738874;82;20127;-41
2022/06/30 06:07:16;;;;;;;;;;;;;;;21.56;79.98;99025.08;1738797;82;20115;-39
2022/06/30 06:09:41;;;;;;;;;;;;;;;21.60;79.69;99032.59;1738780;82;20134;-39
2022/06/30 06:12:08;;;;;;;;;;;;;;;21.62;79.99;99033.27;1738777;82;20144;-40
2022/06/30 06:14:33;;;;;;;;;;;;;;;21.68;79.98;99041.15;1738768;82;20103;-39
2022/06/30 06:16:59;;;;;;;;;;;;;;;21.80;79.47;99037.17;1738828;83;20165;-40
2022/06/30 06:19:24;;;;;;;;;;;;;;;21.88;79.09;99036.35;1738770;83;20115;-38
2022/06/30 06:21:50;;;;;;;;;;;;;;;21.99;77.95;99033.39;1738856;83;20452;-40
2022/06/30 06:24:18;;;;;;;;;;;;;;;22.13;78.46;99029.72;1738762;83;20111;-39
2022/06/30 06:26:44;;;;;;;;;;;;;;;22.27;77.71;99030.95;1738803;82;20107;-40
2022/06/30 06:29:09;;;;;;;;;;;;;;;22.38;77.66;99021.23;1738865;83;20116;-40
2022/06/30 06:31:38;;;;;;;;;;;;;;;22.49;76.96;99028.10;1738871;82;20190;-39
2022/06/30 06:34:04;;;;;;;;;;;;;;;22.53;77.00;99025.41;1738990;82;20423;-40
2022/06/30 06:36:29;;;;;;;;;;;;;;;22.58;76.47;99023.07;1738972;82;20162;-39
2022/06/30 06:38:55;;;;;;;;;;;;;;;22.57;76.63;99024.89;1738946;82;20159;-40
2022/06/30 06:41:21;;;;;;;;;;;;;;;22.60;75.97;99021.88;1738850;83;20163;-39
2022/06/30 06:43:48;;;;;;;;;;;;;;;22.58;76.33;99023.07;1738829;83;20107;-38
2022/06/30 06:46:14;;;;;;;;;;;;;;;22.59;76.45;99012.19;1738987;82;20199;-39
2022/06/30 06:48:40;;;;;;;;;;;;;;;22.65;76.53;99004.45;1738970;82;20416;-40
2022/06/30 06:51:06;;;;;;;;;;;;;;;22.69;76.41;98998.59;1738941;83;20115;-38
2022/06/30 06:53:31;;;;;;;;;;;;;;;22.79;76.52;98989.88;1738860;83;20119;-39
2022/06/30 06:55:57;;;;;;;;;;;;;;;22.88;76.17;98980.46;1747804;82;20152;-40
2022/06/30 06:58:22;;;;;;;;;;;;;;;22.96;75.12;98979.94;1758326;82;20492;-40
2022/06/30 07:00:48;;;;;;;;;;;;;;;22.93;75.71;98984.30;1758205;81;20102;-39
2022/06/30 07:03:14;;;;;;;;;;;;;;;22.99;75.57;98985.45;1758244;81;20096;-42
2022/06/30 07:05:40;;;;;;;;;;;;;;;23.05;74.89;98983.95;1758304;81;20409;-40
2022/06/30 07:08:06;;;;;;;;;;;;;;;23.05;75.01;98975.91;1758230;80;20108;-41
2022/06/30 07:10:31;;;;;;;;;;;;;;;23.11;74.47;98985.96;1758154;80;20100;-41
2022/06/30 07:12:57;;;;;;;;;;;;;;;23.12;74.54;98984.94;1758155;81;20097;-41
2022/06/30 07:15:23;;;;;;;;;;;;;;;23.17;74.19;98983.91;1758184;80;20404;-40
2022/06/30 07:17:49;;;;;;;;;;;;;;;23.26;74.71;98978.84;1758235;81;20144;-40
2022/06/30 07:20:15;;;;;;;;;;;;;;;23.37;74.32;98977.11;1758157;81;20432;-40
2022/06/30 07:22:40;;;;;;;;;;;;;;;23.50;73.81;98981.94;1758307;80;20120;-40
2022/06/30 07:25:07;;;;;;;;;;;;;;;23.61;73.56;98984.70;1758222;80;20396;-41
2022/06/30 07:27:33;;;;;;;;;;;;;;;23.71;73.28;98984.51;1758085;80;20132;-40
2022/06/30 07:29:59;;;;;;;;;;;;;;;23.86;73.05;98977.89;1758131;80;20224;-41
2022/06/30 07:32:25;;;;;;;;;;;;;;;23.97;72.53;98973.97;1758103;80;20104;-40
2022/06/30 07:34:50;;;;;;;;;;;;;;;24.05;72.14;98973.89;1758305;81;20109;-41
2022/06/30 07:38:59;;;;;;;11.68;9.40;;;;;;;24.23;71.96;98972.23;1800151;79;23024;-50
2022/06/30 07:41:25;;;;;;;16.57;10.88;;;;;;;24.27;71.39;98977.09;1758597;80;21033;-46
2022/06/30 07:43:51;;;;;;;20.72;11.70;;;;;;;24.30;71.15;98978.56;1760087;81;21022;-49
2022/06/30 07:46:17;;;;;;;22.35;11.28;;;;;;;24.36;71.06;98983.23;1759968;81;21081;-47
2022/06/30 07:48:44;;;;;;;26.93;11.90;;;;;;;24.41;70.88;98982.16;1760039;81;20995;-47
2022/06/30 07:51:10;;;;;;;29.00;11.40;;;;;;;24.41;70.75;98978.13;1760257;81;21464;-49
2022/06/30 07:53:35;;;;;;;18.07;11.08;;;;;;;24.51;70.74;98974.68;1760287;81;21031;-43
2022/06/30 07:56:01;;;;;;;15.32;10.82;;;;;;;24.60;70.77;98971.44;1760011;81;21018;-45
2022/06/30 07:58:27;;;;;;;15.68;11.65;;;;;;;24.69;70.46;98969.52;1760022;81;21026;-47
2022/06/30 08:00:54;;;;;;;21.77;11.18;;;;;;;24.83;70.29;98975.42;1760205;81;21038;-37
2022/06/30 08:03:20;;;;;;;15.08;10.38;;;;;;;24.94;69.99;98973.27;1757093;80;20991;-47
2022/06/30 08:05:45;;;;;;;13.72;11.40;;;;;;;25.03;69.69;98977.05;1731682;82;21010;-48
2022/06/30 08:08:11;;;;;;;14.07;11.30;;;;;;;25.06;69.16;98984.72;1733422;81;21154;-51
2022/06/30 08:10:37;;;;;;;16.70;11.65;;;;;;;25.15;69.06;98990.84;1761634;81;21441;-49
2022/06/30 08:13:03;;;;;;;16.85;11.22;;;;;;;25.20;68.84;98982.23;1761713;80;21027;-46
2022/06/30 08:15:28;;;;;;;15.43;11.20;;;;;;;25.27;68.95;98979.98;1761642;81;21563;-46
2022/06/30 08:17:54;;;;;;;17.82;14.73;;;;;;;25.37;68.89;98973.47;1761762;80;21484;-46
2022/06/30 08:20:20;;;;;;;20.35;12.07;;;;;;;25.45;68.48;98974.69;1761503;81;21555;-51
2022/06/30 08:22:46;;;;;;;17.73;10.88;;;;;;;25.55;68.23;98971.20;1761828;80;21484;-48
2022/06/30 08:25:11;;;;;;;19.37;11.30;;;;;;;25.67;67.97;98971.03;1761539;81;21456;-49
2022/06/30 08:27:37;;;;;;;20.30;11.48;;;;;;;25.79;67.79;98970.00;1761709;80;20963;-52
2022/06/30 08:30:04;;;;;;;32.15;12.75;;;;;;;25.93;67.84;98969.67;1761712;80;20979;-40
2022/06/30 08:32:30;;;;;;;18.98;12.75;;;;;;;26.13;67.10;98966.34;1732172;80;21023;-45
2022/06/30 08:34:56;;;;;;;83.37;14.97;;;;;;;26.28;66.34;98965.73;1731786;82;21155;-44
2022/06/30 08:37:22;;;;;;;18.25;12.82;;;;;;;26.46;66.05;98964.44;1728510;82;21020;-46
2022/06/30 08:42:33;;;;;;;21.17;12.00;;;;;;;26.81;65.53;98970.23;1718763;82;21133;-42
2022/06/30 08:45:13;;;;;;;18.37;11.90;;;;;;;27.05;64.92;98966.73;1719314;82;21031;-42
2022/06/30 08:47:41;;;;;;;13.38;10.85;;;;;;;27.26;64.33;98978.45;1718662;83;21100;-41
2022/06/30 08:50:09;;;;;;;28.07;11.10;;;;;;;27.46;63.58;98979.39;1718514;82;21469;-35
2022/06/30 08:52:51;;;;;;;89.60;14.40;;;;;;;27.64;63.44;98987.47;1718188;82;20986;-46
2022/06/30 08:55:21;;;;;;;43.35;12.60;;;;;;;27.82;62.99;98983.67;1717835;82;21051;-43
2022/06/30 08:57:47;;;;;;;16.60;12.05;;;;;;;27.97;62.28;98986.23;1718235;82;20995;-48
2022/06/30 09:00:16;;;;;;;15.32;12.00;;;;;;;28.14;61.08;98989.36;1718605;82;20999;-41
2022/06/30 09:02:44;;;;;;;22.15;12.10;;;;;;;28.28;61.04;98986.98;1718154;82;20999;-39
2022/06/30 09:05:10;;;;;;;20.52;12.07;;;;;;;28.40;60.03;98986.36;1718363;82;21047;-45
2022/06/30 09:07:36;;;;;;;19.87;12.13;;;;;;;28.52;59.53;98986.05;1718704;83;20981;-40
2022/06/30 09:10:03;;;;;;;21.93;12.43;;;;;;;28.60;59.41;98980.47;1727632;82;20988;-37
2022/06/30 09:12:29;;;;;;;22.17;11.97;;;;;;;28.77;59.25;98988.98;1754270;80;20943;-39
2022/06/30 09:14:55;;;;;;;18.32;12.53;;;;;;;28.96;59.04;98987.30;1775398;80;20963;-45
2022/06/30 09:17:28;;;;;;;21.35;13.08;;;;;;;29.16;58.73;98983.22;1783907;79;21138;-49
2022/06/30 09:20:08;;;;;;;18.85;11.75;;;;;;;29.34;57.43;98980.33;1754416;80;20981;-54
2022/06/30 09:22:37;;;;;;;18.27;11.78;;;;;;;29.46;57.01;98986.73;1784213;80;21483;-51
2022/06/30 09:25:16;;;;;;;19.52;12.10;;;;;;;29.68;56.73;98983.19;1784147;80;21033;-47
2022/06/30 09:27:44;;;;;;;14.53;11.40;;;;;;;29.89;56.55;98985.28;1784233;80;21032;-51
2022/06/30 09:30:21;;;;;;;15.10;11.08;;;;;;;30.03;55.55;98981.44;1784367;80;20974;-52
2022/06/30 09:32:56;;;;;;;18.85;11.93;;;;;;;30.25;54.46;98987.33;1783861;79;21013;-42
2022/06/30 09:35:28;;;;;;;15.43;12.60;;;;;;;30.38;53.26;98987.28;1784596;80;20967;-54
2022/06/30 09:38:10;;;;;;;14.75;10.70;;;;;;;30.69;53.61;98988.77;1787053;80;20998;-51
2022/06/30 09:43:30;;;;;;;21.23;11.03;;;;;;;31.44;53.15;98995.95;1792959;80;20974;-46
2022/06/30 09:45:56;;;;;;;19.82;10.68;;;;;;;31.81;50.37;98989.11;1791834;80;21020;-43
2022/06/30 09:48:26;;;;;;;18.80;10.10;;;;;;;32.17;51.29;98984.65;1793440;80;20971;-44
2022/06/30 09:51:03;;;;;;;14.65;10.35;;;;;;;32.63;50.44;98978.44;1793255;79;20989;-42
2022/06/30 09:53:31;;;;;;;13.48;10.05;;;;;;;33.12;49.96;98975.48;1792720;80;20981;-47
2022/06/30 09:56:13;;;;;;;15.18;9.80;;;;;;;33.57;47.90;98962.50;1793120;80;21013;-45
2022/06/30 09:58:43;;;;;;;16.23;10.13;;;;;;;33.95;46.79;98969.23;1785986;80;21018;-48
2022/06/30 10:01:11;;;;;;;14.93;9.30;;;;;;;34.26;45.62;98967.05;1782094;80;21472;-44
2022/06/30 10:03:51;;;;;;;15.98;8.90;;;;;;;34.51;44.95;98968.52;1781395;79;21013;-44
2022/06/30 10:06:18;;;;;;;85.30;13.62;;;;;;;34.76;44.96;98972.20;1780136;80;21468;-45
2022/06/30 10:08:44;;;;;;;34.60;10.38;;;;;;;35.12;43.90;98970.79;1785675;80;21440;-49
2022/06/30 10:11:10;;;;;;;11.35;8.83;;;;;;;35.44;42.91;98966.03;1782282;80;20974;-42
2022/06/30 10:13:39;;;;;;;14.40;8.25;;;;;;;35.64;42.12;98970.05;1765175;80;21002;-45
2022/06/30 10:16:07;;;;;;;12.30;8.20;;;;;;;35.77;41.00;98964.75;1759569;81;20979;-44
2022/06/30 10:18:39;;;;;;;11.45;8.65;;;;;;;35.99;40.26;98960.05;1759575;81;20956;-49
2022/06/30 10:21:05;;;;;;;14.95;8.75;;;;;;;36.26;39.84;98960.05;1759552;81;21003;-46
2022/06/30 10:23:32;;;;;;;;;;;;;;;36.57;39.57;98960.27;1762446;81;20979;-47
2022/06/30 10:25:58;;;;;;;9.78;8.53;;;;;;;36.38;36.26;98962.58;1759701;81;20098;-45
2022/06/30 10:28:30;;;;;;;9.10;8.08;;;;;;;36.57;37.89;98958.09;1759702;81;21031;-42
2022/06/30 10:31:10;;;;;;;9.70;7.58;;;;;;;36.82;38.37;98959.64;1759623;81;21136;-43
2022/06/30 10:34:13;;;;;;;10.90;8.10;;;;;;;37.12;37.69;98958.69;1759612;81;21538;-49
2022/06/30 10:36:46;;;;;;;12.65;8.03;;;;;;;37.35;36.94;98961.00;1759646;81;21446;-43
2022/06/30 10:39:39;;;;;;;17.00;7.17;;;;;;;37.64;36.11;98959.20;1749428;81;20987;-44
2022/06/30 10:42:05;;;;;;;9.33;7.83;;;;;;;37.84;35.50;98960.60;1746441;82;20956;-48
2022/06/30 10:44:32;;;;;;;8.75;7.95;;;;;;;38.05;34.82;98951.00;1746449;82;20972;-50
2022/06/30 10:47:05;;;;;;;13.88;7.87;;;;;;;38.21;34.04;98953.23;1746331;82;20972;-39
2022/06/30 10:49:32;;;;;;;9.80;7.87;;;;;;;38.55;34.04;98949.39;1746380;82;21027;-48
2022/06/30 10:52:22;;;;;;;15.70;8.78;;;;;;;38.70;33.83;98950.47;1725299;82;21112;-50
2022/06/30 10:54:48;;;;;;;11.97;8.10;;;;;;;38.84;33.38;98949.31;1746391;82;20967;-37
2022/06/30 10:57:16;;;;;;;9.08;7.47;;;;;;;39.00;32.99;98950.09;1746340;82;20995;-52
2022/06/30 10:59:42;;;;;;;9.15;7.28;;;;;;;39.10;32.39;98947.34;1746385;81;21472;-40
2022/06/30 11:02:22;;;;;;;14.28;7.92;;;;;;;39.38;32.47;98943.63;1746369;82;21457;-52
2022/06/30 11:04:50;;;;;;;10.43;6.72;;;;;;;39.49;32.20;98943.31;1746401;82;21576;-44
2022/06/30 11:07:24;;;;;;;12.78;9.33;;;;;;;39.76;31.25;98939.86;1746419;82;20988;-41
2022/06/30 11:09:57;;;;;;;8.23;7.40;;;;;;;39.72;31.15;98934.91;1746354;82;21417;-44
2022/06/30 11:12:37;;;;;;;12.03;6.90;;;;;;;39.88;30.95;98938.39;1746440;82;20964;-47
2022/06/30 11:15:02;;;;;;;12.13;7.50;;;;;;;40.21;30.41;98931.00;1745155;82;20956;-50
2022/06/30 11:17:30;;;;;;;7.85;7.08;;;;;;;40.17;30.55;98928.00;1746378;81;20960;-48
2022/06/30 11:20:09;;;;;;;10.53;7.03;;;;;;;40.11;30.19;98931.36;1746397;82;21531;-42
2022/06/30 11:22:36;;;;;;;17.17;7.37;;;;;;;40.14;29.95;98929.13;1746350;82;20972;-48
2022/06/30 11:25:07;;;;;;;11.60;6.87;;;;;;;40.28;29.79;98929.55;1746414;81;21035;-45
2022/06/30 11:27:36;;;;;;;9.40;6.58;;;;;;;40.11;29.70;98934.64;1745084;82;21591;-44
2022/06/30 11:30:09;;;;;;;11.08;7.00;;;;;;;40.46;29.71;98924.43;1746420;82;20984;-48
2022/06/30 11:32:35;;;;;;;10.98;6.92;;;;;;;39.89;27.92;98920.74;1746287;82;21043;-44
2022/06/30 11:35:04;;;;;;;7.50;6.80;;;;;;;40.36;29.05;98925.36;1746318;82;21046;-49
2022/06/30 11:37:35;;;;;;;9.53;7.25;;;;;;;40.48;28.41;98918.91;1746279;82;20987;-49
2022/06/30 11:40:09;;;;;;;7.22;6.50;;;;;;;40.51;28.23;98916.11;1746237;82;21458;-44
2022/06/30 11:42:36;;;;;;;10.50;6.87;;;;;;;40.62;28.20;98914.07;1746599;81;21350;-40
2022/06/30 11:45:02;;;;;;;12.47;7.22;;;;;;;40.59;28.39;98914.11;1746041;82;21652;-48
2022/06/30 11:47:29;;;;;;;9.43;6.60;;;;;;;40.83;28.27;98904.48;1746332;81;20983;-42
2022/06/30 11:49:58;;;;;;;7.25;6.20;;;;;;;41.00;28.58;98906.75;1746157;82;20968;-43
2022/06/30 11:52:37;;;;;;;6.67;6.00;;;;;;;41.08;27.84;98904.45;1746104;82;20975;-43
2022/06/30 11:55:17;;;;;;;7.97;5.72;;;;;;;40.95;27.46;98908.22;1746300;82;20968;-43
2022/06/30 11:57:39;;;;;;;11.57;6.67;;;;;;;40.69;26.62;98906.27;1721882;81;21093;-43
2022/06/30 12:00:12;;;;;;;8.70;6.10;;;;;;;40.82;26.94;98903.40;1747613;81;21160;-47
2022/06/30 12:02:41;;;;;;;11.93;6.22;;;;;;;40.62;27.04;98903.86;1747927;81;21482;-42
2022/06/30 12:05:14;;;;;;;9.45;5.75;;;;;;;40.41;26.84;98903.28;1747608;81;21039;-38
2022/06/30 12:07:42;;;;;;;7.70;6.40;;;;;;;40.35;26.79;98897.56;1780702;79;21513;-44
2022/06/30 12:10:11;;;;;;;10.03;6.25;;;;;;;40.46;27.08;98897.72;1782864;80;20982;-39
2022/06/30 12:12:38;;;;;;;12.55;6.97;;;;;;;40.14;27.21;98891.95;1784076;80;21583;-45
2022/06/30 12:15:13;;;;;;;8.88;6.40;;;;;;;40.04;27.82;98891.47;1784154;80;21420;-45
2022/06/30 12:17:42;;;;;;;8.98;6.62;;;;;;;39.98;27.46;98896.20;1784416;80;21006;-49
2022/06/30 12:20:13;;;;;;;9.58;6.28;;;;;;;40.07;27.56;98895.84;1784094;80;21001;-48
2022/06/30 12:22:42;;;;;;;8.65;6.53;;;;;;;39.67;27.83;98888.73;1784082;80;21049;-43
2022/06/30 12:25:09;;;;;;;10.28;6.00;;;;;;;39.47;27.79;98885.56;1784381;79;21479;-46
2022/06/30 12:27:45;;;;;;;11.12;6.10;;;;;;;39.42;27.99;98892.44;1784242;79;21029;-43
2022/06/30 12:30:15;;;;;;;;;;;;;;;39.11;28.46;98892.61;1787052;79;21539;-39